Terminal Aerodrome Forecast
Issued by NWS

Home | Current Version | Previous Version | Text Only | Print | Product List | Glossary On
Versions: 1 2 3 4 5 6 7 8 9 10 11 12 13 14 15 16 17 18 19 20 21 22 23 24 25 26
000
FTUS46 KLOX 011200 AAA
TAFLAX
TAF AMD
KLAX 011257Z 0113/0218 VRB03KT P6SM BKN010
     FM011700 26006KT P6SM FEW012
     FM012000 26011KT P6SM SCT200
     FM020400 26007KT P6SM SCT200
     FM020800 VRB03KT P6SM BKN009 BKN200
     FM021100 VRB03KT P6SM OVC012
     FM021600 22006KT P6SM SCT015 BKN200=

USA.gov is the U.S. government's official web portal to all federal, state and local government web resources and services.